createdAt,value
2023-04-15T00:00:59.772Z,39.19
2023-04-15T00:03:27.277Z,39.40
2023-04-15T00:05:54.234Z,37.45
2023-04-15T00:08:21.115Z,38.61
2023-04-15T00:10:48.026Z,39.74
2023-04-15T00:13:15.495Z,39.65
2023-04-15T00:15:43.327Z,39.62
2023-04-15T00:18:10.416Z,39.63
2023-04-15T00:20:37.736Z,39.31
2023-04-15T00:23:05.626Z,40.16
2023-04-15T00:25:32.508Z,39.23
2023-04-15T00:27:59.419Z,41.16
2023-04-15T00:30:26.567Z,40.86
2023-04-15T00:32:53.628Z,40.87
2023-04-15T00:35:22.102Z,41.18
2023-04-15T00:37:51.468Z,41.87
2023-04-15T00:40:21.066Z,41.90
2023-04-15T00:42:48.303Z,40.98
2023-04-15T00:45:15.589Z,41.78
2023-04-15T00:47:44.257Z,40.26
2023-04-15T00:50:12.726Z,40.24
2023-04-15T00:52:40.152Z,41.52
2023-04-15T00:55:07.995Z,41.38
2023-04-15T00:57:36.229Z,40.09
2023-04-15T01:00:04.644Z,39.85
2023-04-15T01:02:32.166Z,39.70
2023-04-15T01:04:58.975Z,41.13
2023-04-15T01:07:26.231Z,40.33
2023-04-15T01:09:54.091Z,40.73
2023-04-15T01:12:21.181Z,42.01
2023-04-15T01:14:48.253Z,42.28
2023-04-15T01:17:15.100Z,43.09
2023-04-15T01:19:42.345Z,41.97
2023-04-15T01:22:09.293Z,38.96
2023-04-15T01:24:38.432Z,39.27
2023-04-15T01:27:05.846Z,39.31
2023-04-15T01:29:35.923Z,40.95
2023-04-15T01:32:02.686Z,39.63
2023-04-15T01:34:29.473Z,40.76
2023-04-15T01:36:56.249Z,42.15
2023-04-15T01:39:22.982Z,42.29
2023-04-15T01:41:49.633Z,42.31
2023-04-15T01:44:16.780Z,39.74
2023-04-15T01:46:43.683Z,40.18
2023-04-15T01:49:10.412Z,42.33
2023-04-15T01:51:37.136Z,42.98
2023-04-15T01:54:04.140Z,42.56
2023-04-15T01:56:30.954Z,43.23
2023-04-15T01:58:57.704Z,42.91
2023-04-15T02:01:25.003Z,43.11
2023-04-15T02:03:52.288Z,41.16
2023-04-15T02:06:19.406Z,40.76
2023-04-15T02:08:46.260Z,40.44
2023-04-15T02:11:13.165Z,41.07
2023-04-15T02:13:39.875Z,41.42
2023-04-15T02:16:16.909Z,42.30
2023-04-15T02:18:46.255Z,43.10
2023-04-15T02:21:13.394Z,41.99
2023-04-15T02:23:40.160Z,42.19
2023-04-15T02:26:07.161Z,41.90
2023-04-15T02:28:33.887Z,42.18
2023-04-15T02:31:01.715Z,41.01
2023-04-15T02:33:32.323Z,40.84
2023-04-15T02:36:00.530Z,40.41
2023-04-15T02:38:27.800Z,40.19
2023-04-15T02:40:54.852Z,39.77
2023-04-15T02:43:21.498Z,40.24
2023-04-15T02:45:48.621Z,39.49
2023-04-15T02:48:18.058Z,40.09
2023-04-15T02:50:46.972Z,40.10
2023-04-15T02:53:15.033Z,40.24
2023-04-15T02:55:42.864Z,40.15
2023-04-15T02:58:09.665Z,39.93
2023-04-15T03:00:36.521Z,40.12
2023-04-15T03:03:06.202Z,40.08
2023-04-15T03:05:33.400Z,40.94
2023-04-15T03:08:03.161Z,41.14
2023-04-15T03:10:31.700Z,41.35
2023-04-15T03:12:58.680Z,41.43
2023-04-15T03:15:25.638Z,42.46
2023-04-15T03:17:53.889Z,42.99
2023-04-15T03:20:20.964Z,44.35
2023-04-15T03:22:48.630Z,43.84
2023-04-15T03:25:15.734Z,43.99
2023-04-15T03:27:43.079Z,43.40
2023-04-15T03:30:12.452Z,44.15
2023-04-15T03:32:40.370Z,45.04
2023-04-15T03:35:08.272Z,45.26
2023-04-15T03:37:35.014Z,44.15
2023-04-15T03:40:02.440Z,43.44
2023-04-15T03:42:29.095Z,42.80
2023-04-15T03:44:55.999Z,43.89
2023-04-15T03:47:22.995Z,44.77
2023-04-15T03:49:49.695Z,44.10
2023-04-15T03:52:16.395Z,44.49
2023-04-15T03:54:43.075Z,44.37
2023-04-15T03:57:09.697Z,45.04
2023-04-15T03:59:36.467Z,46.13
2023-04-15T04:02:03.379Z,42.87
2023-04-15T04:04:30.268Z,43.82
2023-04-15T04:06:57.104Z,45.30
2023-04-15T04:09:23.811Z,45.38
2023-04-15T04:11:50.483Z,46.26
2023-04-15T04:14:18.082Z,44.39
2023-04-15T04:16:45.379Z,45.17
2023-04-15T04:19:12.303Z,45.44
2023-04-15T04:21:39.740Z,46.00
2023-04-15T04:24:06.614Z,46.08
2023-04-15T04:26:33.231Z,45.96
2023-04-15T04:29:00.169Z,45.65
2023-04-15T04:31:27.320Z,44.71
2023-04-15T04:33:54.034Z,44.68
2023-04-15T04:36:20.638Z,45.05
2023-04-15T04:38:47.350Z,45.83
2023-04-15T04:41:13.929Z,47.02
2023-04-15T04:43:40.621Z,47.18
2023-04-15T04:46:07.375Z,47.69
2023-04-15T04:48:34.074Z,47.74
2023-04-15T04:51:00.848Z,47.55
2023-04-15T04:53:28.086Z,47.95
2023-04-15T04:55:54.728Z,47.63
2023-04-15T04:58:21.515Z,48.98
2023-04-15T05:00:48.192Z,47.75
2023-04-15T05:03:15.254Z,47.53
2023-04-15T05:05:42.224Z,48.21
2023-04-15T05:08:08.989Z,48.75
2023-04-15T05:10:36.277Z,49.10
2023-04-15T05:13:03.213Z,48.83
2023-04-15T05:15:30.119Z,48.66
2023-04-15T05:17:57.026Z,48.67
2023-04-15T05:20:23.760Z,49.76
2023-04-15T05:22:50.786Z,49.83
2023-04-15T05:25:17.964Z,48.98
2023-04-15T05:27:44.744Z,50.33
2023-04-15T05:30:13.401Z,50.63
2023-04-15T05:32:40.934Z,49.49
2023-04-15T05:35:08.594Z,49.53
2023-04-15T05:37:36.291Z,49.56
2023-04-15T05:40:04.436Z,50.58
2023-04-15T05:42:31.489Z,50.95
2023-04-15T05:44:58.367Z,51.37
2023-04-15T05:47:25.132Z,49.40
2023-04-15T05:49:51.868Z,51.07
2023-04-15T05:52:18.567Z,50.92
2023-04-15T05:54:45.250Z,51.62
2023-04-15T05:57:12.079Z,51.50
2023-04-15T05:59:38.948Z,49.50
2023-04-15T06:02:06.347Z,48.63
2023-04-15T06:04:33.285Z,48.09
2023-04-15T06:06:59.993Z,50.17
2023-04-15T06:09:26.813Z,51.60
2023-04-15T06:11:53.551Z,51.60
2023-04-15T06:14:20.287Z,50.87
2023-04-15T06:16:47.374Z,51.01
2023-04-15T06:19:14.372Z,49.94
2023-04-15T06:21:41.974Z,49.55
2023-04-15T06:24:08.719Z,49.26
2023-04-15T06:26:35.610Z,49.89
2023-04-15T06:29:02.477Z,49.40
2023-04-15T06:31:30.027Z,49.51
2023-04-15T06:33:56.779Z,49.51
2023-04-15T06:36:23.471Z,51.36
2023-04-15T06:38:50.490Z,51.47
2023-04-15T06:41:18.173Z,50.58
2023-04-15T06:43:44.908Z,49.41
2023-04-15T06:46:11.680Z,49.09
2023-04-15T06:48:38.462Z,47.88
2023-04-15T06:51:05.330Z,47.18
2023-04-15T06:53:32.059Z,46.65
2023-04-15T06:55:58.845Z,46.77
2023-04-15T06:58:25.788Z,47.32
2023-04-15T07:00:53.067Z,46.37
2023-04-15T07:03:19.947Z,45.75
2023-04-15T07:05:46.655Z,45.75
2023-04-15T07:08:14.111Z,45.43
2023-04-15T07:10:41.568Z,44.61
2023-04-15T07:13:08.946Z,43.21
2023-04-15T07:15:35.884Z,44.28
2023-04-15T07:18:02.977Z,45.27
2023-04-15T07:20:29.833Z,45.23
2023-04-15T07:22:56.729Z,45.52
2023-04-15T07:25:23.616Z,43.88
2023-04-15T07:27:50.546Z,45.15
2023-04-15T07:30:17.306Z,44.26
2023-04-15T07:32:44.015Z,42.91
2023-04-15T07:35:11.646Z,41.32
2023-04-15T07:37:38.221Z,41.51
2023-04-15T07:40:07.096Z,41.86
2023-04-15T07:42:34.650Z,41.68
2023-04-15T07:45:01.531Z,41.27
2023-04-15T07:47:28.287Z,41.02
2023-04-15T07:49:54.974Z,40.43
2023-04-15T07:52:21.665Z,40.02
2023-04-15T07:54:48.453Z,39.31
2023-04-15T07:57:15.024Z,39.02
2023-04-15T07:59:41.804Z,38.74
2023-04-15T08:02:08.675Z,40.34
2023-04-15T08:04:35.697Z,38.72
2023-04-15T08:07:03.213Z,39.54
2023-04-15T08:09:29.889Z,39.70
2023-04-15T08:11:57.110Z,39.89
2023-04-15T08:14:24.736Z,40.39
2023-04-15T08:16:51.616Z,40.64
2023-04-15T08:19:18.495Z,40.21
2023-04-15T08:21:45.651Z,37.98
2023-04-15T08:24:13.093Z,37.05
2023-04-15T08:26:39.705Z,35.50
2023-04-15T08:29:06.508Z,37.20
2023-04-15T08:31:33.433Z,36.74
2023-04-15T08:34:00.474Z,38.20
2023-04-15T08:36:27.206Z,37.39
2023-04-15T08:38:54.127Z,39.06
2023-04-15T08:41:26.173Z,40.19
2023-04-15T08:44:03.855Z,39.72
2023-04-15T08:46:32.347Z,40.15
2023-04-15T08:48:59.172Z,40.68
2023-04-15T08:51:27.297Z,40.19
2023-04-15T08:53:54.914Z,38.59
2023-04-15T08:56:26.030Z,38.49
2023-04-15T08:58:53.298Z,39.12
2023-04-15T09:01:20.659Z,39.22
2023-04-15T09:03:49.474Z,41.01
2023-04-15T09:06:18.937Z,40.09
2023-04-15T09:08:45.802Z,40.30
2023-04-15T09:11:12.442Z,41.59
2023-04-15T09:13:39.611Z,41.30
2023-04-15T09:16:08.138Z,39.50
2023-04-15T09:18:36.723Z,39.62
2023-04-15T09:21:11.363Z,39.84
2023-04-15T09:23:39.852Z,39.45
2023-04-15T09:26:07.100Z,40.61
2023-04-15T09:28:41.530Z,39.96
2023-04-15T09:31:08.514Z,39.82
2023-04-15T09:33:35.208Z,39.66
2023-04-15T09:36:05.680Z,38.47
2023-04-15T09:38:33.191Z,41.48
2023-04-15T09:40:59.997Z,38.69
2023-04-15T09:43:39.447Z,42.16
2023-04-15T09:46:06.401Z,40.28
2023-04-15T09:48:33.125Z,36.00
2023-04-15T09:51:01.444Z,39.09
2023-04-15T09:53:30.577Z,39.04
2023-04-15T09:56:03.021Z,38.37
2023-04-15T09:58:33.820Z,37.23
2023-04-15T10:01:03.124Z,39.47
2023-04-15T10:03:31.604Z,38.82
2023-04-15T10:06:02.194Z,38.70
2023-04-15T10:08:32.831Z,40.32
2023-04-15T10:11:02.011Z,37.79
2023-04-15T10:13:33.444Z,38.83
2023-04-15T10:16:11.330Z,38.64
2023-04-15T10:18:43.930Z,38.25
2023-04-15T10:21:10.832Z,39.30
2023-04-15T10:23:38.567Z,36.95
2023-04-15T10:26:06.207Z,36.60
2023-04-15T10:28:32.890Z,39.69
2023-04-15T10:31:00.235Z,41.85
2023-04-15T10:33:27.715Z,40.42
2023-04-15T10:35:56.167Z,40.25
2023-04-15T10:38:43.362Z,38.67
2023-04-15T10:41:27.966Z,40.04
2023-04-15T10:44:05.614Z,37.90
2023-04-15T10:46:42.821Z,37.29
2023-04-15T10:49:24.877Z,36.70
2023-04-15T10:51:54.088Z,35.38
2023-04-15T10:54:26.620Z,35.16
2023-04-15T10:57:05.991Z,37.63
2023-04-15T10:59:36.105Z,36.08
2023-04-15T11:02:07.467Z,36.66
2023-04-15T11:04:59.284Z,38.26
2023-04-15T11:07:35.681Z,37.41
2023-04-15T11:10:04.839Z,35.69
2023-04-15T11:12:38.873Z,36.21
2023-04-15T11:15:33.182Z,36.99
2023-04-15T11:18:14.449Z,37.45
2023-04-15T11:20:45.120Z,37.43
2023-04-15T11:23:14.901Z,37.61
2023-04-15T11:25:43.820Z,37.47
2023-04-15T11:28:12.779Z,38.71
2023-04-15T11:30:40.416Z,39.06
2023-04-15T11:33:09.538Z,41.10
2023-04-15T11:35:36.452Z,41.35
2023-04-15T11:38:09.495Z,40.62
2023-04-15T11:40:37.390Z,40.84
2023-04-15T11:43:08.119Z,40.31
2023-04-15T11:45:44.448Z,41.33
2023-04-15T11:48:12.292Z,42.43
2023-04-15T11:50:43.329Z,39.48
2023-04-15T11:53:12.183Z,39.88
2023-04-15T11:55:49.370Z,41.53
2023-04-15T11:58:23.458Z,42.07
2023-04-15T12:01:01.096Z,42.18
2023-04-15T12:03:30.183Z,42.37
2023-04-15T12:06:08.913Z,41.45
2023-04-15T12:09:06.897Z,42.48
2023-04-15T12:11:35.033Z,41.01
2023-04-15T12:14:07.700Z,42.51
2023-04-15T12:16:48.023Z,41.34
2023-04-15T12:19:37.564Z,40.95
2023-04-15T12:22:06.658Z,41.53
2023-04-15T12:24:35.975Z,41.04
2023-04-15T12:27:11.400Z,40.45
2023-04-15T12:29:39.189Z,40.62
2023-04-15T12:32:11.006Z,42.12
2023-04-15T12:34:40.758Z,41.07
2023-04-15T12:37:09.773Z,40.78
2023-04-15T12:39:39.277Z,41.57
2023-04-15T12:42:06.915Z,41.03
2023-04-15T12:44:34.415Z,41.38
2023-04-15T12:47:01.376Z,41.56
2023-04-15T12:49:29.125Z,41.28
2023-04-15T12:51:57.665Z,42.91
2023-04-15T12:54:24.353Z,41.78
2023-04-15T12:56:51.514Z,41.97
2023-04-15T12:59:18.778Z,41.65
2023-04-15T13:01:47.358Z,42.21
2023-04-15T13:04:15.705Z,40.79
2023-04-15T13:06:42.621Z,40.56
2023-04-15T13:09:09.385Z,40.99
2023-04-15T13:11:36.599Z,42.52
2023-04-15T13:14:05.679Z,42.08
2023-04-15T13:16:33.385Z,41.19
2023-04-15T13:19:01.001Z,42.43
2023-04-15T13:21:27.867Z,42.42
2023-04-15T13:23:54.717Z,40.63
2023-04-15T13:26:21.891Z,38.63
2023-04-15T13:28:48.548Z,38.82
2023-04-15T13:31:15.260Z,39.25
2023-04-15T13:33:42.140Z,39.66
2023-04-15T13:36:09.092Z,42.08
2023-04-15T13:38:36.336Z,42.37
2023-04-15T13:41:02.997Z,44.42
2023-04-15T13:43:29.716Z,48.83
2023-04-15T13:45:56.657Z,48.18
2023-04-15T13:48:23.696Z,48.81
2023-04-15T13:50:50.538Z,44.24
2023-04-15T13:53:17.225Z,52.63
2023-04-15T13:55:44.081Z,52.27
2023-04-15T13:58:11.227Z,48.41
2023-04-15T14:00:38.061Z,50.94
2023-04-15T14:03:05.282Z,49.96
2023-04-15T14:05:33.079Z,46.69
2023-04-15T14:08:00.582Z,45.89
2023-04-15T14:10:27.335Z,45.76
2023-04-15T14:12:54.180Z,44.96
2023-04-15T14:15:21.635Z,42.38
2023-04-15T14:17:48.473Z,39.50
2023-04-15T14:20:17.175Z,41.93
2023-04-15T14:22:44.204Z,42.93
2023-04-15T14:25:15.136Z,40.45
2023-04-15T14:27:50.529Z,41.72
2023-04-15T14:30:17.413Z,42.24
2023-04-15T14:32:44.170Z,41.41
2023-04-15T14:35:10.911Z,41.87
2023-04-15T14:37:37.746Z,43.49
2023-04-15T14:40:04.801Z,41.96
2023-04-15T14:42:31.482Z,43.84
2023-04-15T14:44:58.122Z,41.93
2023-04-15T14:47:24.941Z,43.29
2023-04-15T14:49:51.708Z,43.41
2023-04-15T14:52:18.466Z,43.59
2023-04-15T14:54:45.111Z,44.94
2023-04-15T14:57:11.815Z,45.15
2023-04-15T14:59:38.497Z,44.93
2023-04-15T15:02:05.455Z,43.86
2023-04-15T15:04:33.460Z,43.36
2023-04-15T15:07:00.488Z,45.23
2023-04-15T15:09:27.278Z,44.32
2023-04-15T15:11:53.928Z,45.12
2023-04-15T15:14:20.689Z,43.37
2023-04-15T15:16:47.564Z,43.57
2023-04-15T15:19:14.252Z,43.83
2023-04-15T15:21:41.003Z,44.27
2023-04-15T15:24:07.645Z,44.43
2023-04-15T15:26:34.386Z,44.61
2023-04-15T15:29:01.333Z,43.51
2023-04-15T15:31:28.128Z,43.69
2023-04-15T15:33:54.884Z,45.20
2023-04-15T15:36:21.779Z,46.58
2023-04-15T15:38:48.678Z,44.89
2023-04-15T15:41:15.758Z,44.00
2023-04-15T15:43:42.820Z,44.21
2023-04-15T15:46:09.812Z,45.01
2023-04-15T15:48:36.879Z,42.26
2023-04-15T15:51:04.649Z,42.65
2023-04-15T15:53:31.391Z,43.50
2023-04-15T15:55:58.137Z,43.34
2023-04-15T15:58:24.844Z,42.29
2023-04-15T16:00:51.727Z,42.83
2023-04-15T16:03:18.634Z,39.32
2023-04-15T16:05:46.103Z,40.40
2023-04-15T16:08:12.747Z,40.25
2023-04-15T16:10:39.466Z,38.15
2023-04-15T16:13:06.193Z,39.32
2023-04-15T16:15:33.086Z,38.92
2023-04-15T16:18:00.340Z,38.31
2023-04-15T16:20:28.485Z,38.98
2023-04-15T16:22:58.623Z,38.22
2023-04-15T16:25:25.770Z,38.51
2023-04-15T16:28:02.997Z,38.06
2023-04-15T16:30:35.907Z,38.38
2023-04-15T16:33:03.782Z,38.79
2023-04-15T16:35:31.759Z,38.88
2023-04-15T16:37:59.700Z,39.18
2023-04-15T16:40:26.590Z,38.70
2023-04-15T16:42:53.432Z,38.85
2023-04-15T16:45:20.025Z,39.40
2023-04-15T16:47:46.809Z,39.83
2023-04-15T16:50:13.442Z,40.43
2023-04-15T16:52:40.261Z,39.76
2023-04-15T16:55:07.164Z,40.49
2023-04-15T16:58:00.920Z,40.71
2023-04-15T17:00:20.823Z,40.80
2023-04-15T17:02:47.630Z,41.00
2023-04-15T17:05:14.526Z,41.73
2023-04-15T17:07:41.279Z,42.09
2023-04-15T17:10:08.448Z,41.70
2023-04-15T17:12:35.311Z,41.11
2023-04-15T17:15:02.083Z,42.20
2023-04-15T17:17:28.789Z,42.81
2023-04-15T17:19:55.775Z,42.47
2023-04-15T17:22:22.655Z,42.24
2023-04-15T17:24:49.339Z,43.95
2023-04-15T17:27:16.007Z,44.67
2023-04-15T17:29:42.799Z,44.24
2023-04-15T17:32:10.948Z,44.38
2023-04-15T17:34:49.667Z,44.62
2023-04-15T17:37:17.932Z,45.52
2023-04-15T17:39:44.685Z,45.93
2023-04-15T17:42:11.755Z,46.87
2023-04-15T17:44:38.644Z,47.58
2023-04-15T17:47:05.584Z,47.91
2023-04-15T17:49:34.178Z,46.58
2023-04-15T17:52:01.552Z,46.50
2023-04-15T17:54:28.327Z,46.30
2023-04-15T17:56:56.728Z,47.54
2023-04-15T17:59:23.918Z,48.19
2023-04-15T18:01:50.893Z,48.16
2023-04-15T18:04:17.742Z,47.88
2023-04-15T18:06:44.654Z,47.84
2023-04-15T18:09:11.497Z,44.91
2023-04-15T18:11:40.082Z,42.71
2023-04-15T18:14:07.247Z,38.40
2023-04-15T18:16:34.370Z,36.69
2023-04-15T18:19:01.177Z,36.85
2023-04-15T18:21:28.040Z,35.80
2023-04-15T18:23:54.776Z,35.02
2023-04-15T18:26:21.984Z,34.13
2023-04-15T18:28:48.823Z,33.59
2023-04-15T18:31:15.730Z,33.23
2023-04-15T18:33:42.587Z,32.78
2023-04-15T18:36:10.284Z,32.22
2023-04-15T18:38:36.993Z,32.55
2023-04-15T18:41:05.435Z,31.58
2023-04-15T18:43:32.542Z,31.68
2023-04-15T18:46:00.134Z,31.74
2023-04-15T18:48:27.106Z,32.77
2023-04-15T18:50:54.306Z,32.17
2023-04-15T18:53:21.727Z,32.20
2023-04-15T18:55:48.573Z,31.74
2023-04-15T18:58:16.122Z,32.01
2023-04-15T19:00:43.930Z,32.26
2023-04-15T19:03:11.702Z,32.24
2023-04-15T19:05:38.864Z,32.40
2023-04-15T19:08:05.680Z,31.78
2023-04-15T19:10:34.459Z,31.82
2023-04-15T19:13:01.294Z,32.77
2023-04-15T19:15:28.752Z,33.09
2023-04-15T19:17:55.649Z,33.08
2023-04-15T19:20:22.777Z,31.45
2023-04-15T19:22:49.460Z,32.10
2023-04-15T19:25:16.355Z,32.31
2023-04-15T19:27:43.150Z,33.20
2023-04-15T19:30:10.115Z,33.27
2023-04-15T19:32:36.811Z,32.62
2023-04-15T19:35:04.045Z,33.25
2023-04-15T19:37:30.766Z,33.39
2023-04-15T19:39:57.504Z,33.18
2023-04-15T19:42:24.186Z,34.23
2023-04-15T19:44:50.887Z,33.14
2023-04-15T19:47:17.663Z,34.88
2023-04-15T19:49:44.465Z,34.62
2023-04-15T19:52:11.159Z,33.72
2023-04-15T19:54:37.837Z,33.92
2023-04-15T19:57:04.626Z,34.40
2023-04-15T19:59:31.361Z,34.16
2023-04-15T20:01:58.240Z,33.57
2023-04-15T20:04:26.103Z,34.43
2023-04-15T20:06:52.859Z,36.24
2023-04-15T20:09:19.676Z,35.12
2023-04-15T20:12:45.690Z,35.05
2023-04-15T20:14:33.146Z,33.52
2023-04-15T20:16:59.832Z,34.25
2023-04-15T20:19:27.225Z,34.83
2023-04-15T20:21:54.393Z,35.01
2023-04-15T20:24:21.581Z,34.48
2023-04-15T20:26:48.368Z,35.62
2023-04-15T20:29:15.362Z,34.71
2023-04-15T20:31:42.233Z,34.58
2023-04-15T20:34:11.784Z,33.87
2023-04-15T20:36:39.088Z,34.37
2023-04-15T20:39:07.282Z,35.32
2023-04-15T20:41:34.223Z,33.13
2023-04-15T20:44:00.950Z,33.04
2023-04-15T20:46:28.058Z,33.53
2023-04-15T20:48:55.668Z,33.14
2023-04-15T20:51:22.562Z,33.63
2023-04-15T20:53:49.744Z,32.58
2023-04-15T20:56:16.464Z,33.47
2023-04-15T20:58:43.141Z,32.85
2023-04-15T21:01:09.971Z,33.75
2023-04-15T21:03:36.935Z,33.04
2023-04-15T21:06:03.857Z,32.82
2023-04-15T21:08:31.661Z,32.25
2023-04-15T21:10:58.669Z,32.66
2023-04-15T21:13:25.583Z,32.60
2023-04-15T21:15:54.249Z,32.97
2023-04-15T21:18:22.049Z,32.48
2023-04-15T21:21:02.196Z,32.31
2023-04-15T21:23:29.861Z,32.65
2023-04-15T21:25:57.334Z,32.95
2023-04-15T21:28:24.122Z,33.24
2023-04-15T21:30:50.964Z,34.14
2023-04-15T21:33:20.278Z,34.18
2023-04-15T21:35:47.055Z,33.93
2023-04-15T21:38:14.325Z,33.48
2023-04-15T21:40:41.084Z,33.47
2023-04-15T21:43:08.353Z,33.01
2023-04-15T21:45:36.139Z,33.17
2023-04-15T21:48:07.759Z,32.60
2023-04-15T21:50:39.474Z,32.87
2023-04-15T21:53:07.861Z,31.75
2023-04-15T21:55:34.913Z,31.88
2023-04-15T21:58:01.736Z,32.06
2023-04-15T22:00:28.427Z,31.40
2023-04-15T22:02:55.344Z,31.49
2023-04-15T22:05:22.494Z,31.46
2023-04-15T22:07:49.227Z,32.23
2023-04-15T22:10:15.849Z,33.99
2023-04-15T22:12:42.676Z,33.62
2023-04-15T22:15:09.576Z,35.92
2023-04-15T22:17:36.306Z,36.50
2023-04-15T22:20:03.633Z,37.47
2023-04-15T22:22:43.203Z,39.01
2023-04-15T22:25:11.392Z,39.66
2023-04-15T22:27:38.063Z,39.70
2023-04-15T22:30:05.669Z,42.13
2023-04-15T22:32:32.424Z,41.32
2023-04-15T22:34:59.254Z,42.78
2023-04-15T22:37:26.177Z,42.36
2023-04-15T22:39:53.164Z,42.30
2023-04-15T22:42:19.872Z,42.14
2023-04-15T22:44:46.673Z,42.38
2023-04-15T22:47:13.370Z,42.67
2023-04-15T22:49:40.434Z,43.33
2023-04-15T22:52:09.036Z,43.20
2023-04-15T22:54:37.658Z,42.37
2023-04-15T22:57:04.447Z,43.34
2023-04-15T22:59:31.168Z,43.70
2023-04-15T23:01:59.470Z,43.21
2023-04-15T23:04:27.103Z,43.81
2023-04-15T23:06:54.827Z,43.23
2023-04-15T23:09:22.506Z,43.29
2023-04-15T23:11:49.773Z,43.15
2023-04-15T23:14:16.750Z,43.67
2023-04-15T23:16:43.461Z,44.27
2023-04-15T23:19:10.248Z,43.82
2023-04-15T23:21:37.059Z,44.20
2023-04-15T23:24:03.967Z,43.79
2023-04-15T23:26:31.205Z,44.14
2023-04-15T23:28:57.937Z,44.54
2023-04-15T23:31:24.697Z,44.71
2023-04-15T23:33:51.494Z,44.45
2023-04-15T23:36:18.165Z,44.92
2023-04-15T23:38:44.963Z,45.20
2023-04-15T23:41:12.106Z,44.90
2023-04-15T23:43:38.998Z,44.46
2023-04-15T23:46:05.712Z,45.05
2023-04-15T23:48:32.650Z,44.93
2023-04-15T23:51:00.520Z,45.75
2023-04-15T23:53:29.867Z,45.52
2023-04-15T23:55:56.842Z,44.83
2023-04-15T23:58:23.902Z,45.65
